sensor_id;sensor_type;location;lat;lon;timestamp;pressure;altitude;pressure_sealevel;temperature;humidity
41306;BME280;27051;50.376;19.152;2024-02-23T00:04:45;96219.11;;;10.07;58.76
41306;BME280;27051;50.376;19.152;2024-02-23T00:07:23;96212.52;;;10.07;58.78
41306;BME280;27051;50.376;19.152;2024-02-23T00:09:53;96211.23;;;10.06;58.71
41306;BME280;27051;50.376;19.152;2024-02-23T00:12:23;96207.61;;;10.06;58.73
41306;BME280;27051;50.376;19.152;2024-02-23T00:15:14;96210.05;;;10.07;58.72
41306;BME280;27051;50.376;19.152;2024-02-23T00:17:57;96210.21;;;10.08;58.56
41306;BME280;27051;50.376;19.152;2024-02-23T00:20:32;96206.23;;;10.08;58.55
41306;BME280;27051;50.376;19.152;2024-02-23T00:23:10;96211.75;;;10.07;58.58
41306;BME280;27051;50.376;19.152;2024-02-23T00:25:39;96209.61;;;10.09;58.55
41306;BME280;27051;50.376;19.152;2024-02-23T00:28:16;96205.86;;;10.09;58.47
41306;BME280;27051;50.376;19.152;2024-02-23T00:33:58;96202.09;;;10.06;58.86
41306;BME280;27051;50.376;19.152;2024-02-23T00:36:45;96197.10;;;10.05;58.89
41306;BME280;27051;50.376;19.152;2024-02-23T00:39:39;96201.71;;;10.10;58.78
41306;BME280;27051;50.376;19.152;2024-02-23T00:42:34;96200.79;;;10.09;58.86
41306;BME280;27051;50.376;19.152;2024-02-23T00:45:04;96198.41;;;10.08;58.77
41306;BME280;27051;50.376;19.152;2024-02-23T00:48:02;96200.33;;;10.09;58.85
41306;BME280;27051;50.376;19.152;2024-02-23T00:50:33;96196.73;;;10.10;58.77
41306;BME280;27051;50.376;19.152;2024-02-23T00:53:07;96195.65;;;10.10;58.79
41306;BME280;27051;50.376;19.152;2024-02-23T00:56:16;96191.73;;;10.11;58.79
41306;BME280;27051;50.376;19.152;2024-02-23T00:58:45;96195.20;;;10.12;58.67
41306;BME280;27051;50.376;19.152;2024-02-23T01:01:25;96194.73;;;10.12;58.77
41306;BME280;27051;50.376;19.152;2024-02-23T01:04:02;96195.42;;;10.13;58.76
41306;BME280;27051;50.376;19.152;2024-02-23T01:06:29;96190.30;;;10.12;58.75
41306;BME280;27051;50.376;19.152;2024-02-23T01:08:59;96192.36;;;10.14;58.82
41306;BME280;27051;50.376;19.152;2024-02-23T01:11:26;96197.04;;;10.15;58.87
41306;BME280;27051;50.376;19.152;2024-02-23T01:14:10;96200.27;;;10.17;58.67
41306;BME280;27051;50.376;19.152;2024-02-23T01:19:36;96203.56;;;10.18;58.77
41306;BME280;27051;50.376;19.152;2024-02-23T01:22:08;96209.09;;;10.19;58.77
41306;BME280;27051;50.376;19.152;2024-02-23T01:24:35;96215.61;;;10.19;58.77
41306;BME280;27051;50.376;19.152;2024-02-23T01:27:33;96217.37;;;10.19;58.78
41306;BME280;27051;50.376;19.152;2024-02-23T01:30:19;96216.76;;;10.17;58.81
41306;BME280;27051;50.376;19.152;2024-02-23T01:35:42;96204.77;;;10.10;59.26
41306;BME280;27051;50.376;19.152;2024-02-23T01:38:21;96197.80;;;10.08;59.23
41306;BME280;27051;50.376;19.152;2024-02-23T01:40:48;96199.34;;;10.11;59.13
41306;BME280;27051;50.376;19.152;2024-02-23T01:48:35;96199.48;;;10.07;59.11
41306;BME280;27051;50.376;19.152;2024-02-23T01:51:02;96202.78;;;10.05;59.08
41306;BME280;27051;50.376;19.152;2024-02-23T01:53:40;96204.54;;;10.06;59.18
41306;BME280;27051;50.376;19.152;2024-02-23T01:56:33;96204.08;;;10.07;59.05
41306;BME280;27051;50.376;19.152;2024-02-23T01:59:41;96202.85;;;10.06;59.00
41306;BME280;27051;50.376;19.152;2024-02-23T02:02:19;96196.72;;;10.04;58.99
41306;BME280;27051;50.376;19.152;2024-02-23T02:04:56;96189.20;;;10.02;59.02
41306;BME280;27051;50.376;19.152;2024-02-23T02:07:43;96187.96;;;9.99;59.00
41306;BME280;27051;50.376;19.152;2024-02-23T02:13:01;96183.05;;;9.95;59.07
41306;BME280;27051;50.376;19.152;2024-02-23T02:15:27;96178.52;;;9.93;59.10
41306;BME280;27051;50.376;19.152;2024-02-23T02:18:26;96188.13;;;9.96;59.00
41306;BME280;27051;50.376;19.152;2024-02-23T02:21:12;96186.59;;;10.00;59.01
41306;BME280;27051;50.376;19.152;2024-02-23T02:24:05;96181.14;;;10.00;58.99
41306;BME280;27051;50.376;19.152;2024-02-23T02:26:34;96187.82;;;10.01;58.97
41306;BME280;27051;50.376;19.152;2024-02-23T02:31:51;96182.75;;;9.99;58.95
41306;BME280;27051;50.376;19.152;2024-02-23T02:34:24;96185.75;;;9.97;58.98
41306;BME280;27051;50.376;19.152;2024-02-23T02:37:13;96187.51;;;9.97;58.88
41306;BME280;27051;50.376;19.152;2024-02-23T02:42:57;96189.64;;;9.95;58.88
41306;BME280;27051;50.376;19.152;2024-02-23T02:45:36;96198.39;;;9.93;59.03
41306;BME280;27051;50.376;19.152;2024-02-23T02:48:07;96203.52;;;9.94;58.93
41306;BME280;27051;50.376;19.152;2024-02-23T02:51:15;96204.58;;;9.89;59.05
41306;BME280;27051;50.376;19.152;2024-02-23T02:53:52;96210.64;;;9.90;59.13
41306;BME280;27051;50.376;19.152;2024-02-23T02:56:22;96207.73;;;9.93;59.22
41306;BME280;27051;50.376;19.152;2024-02-23T02:58:51;96212.50;;;9.94;59.22
41306;BME280;27051;50.376;19.152;2024-02-23T03:01:20;96213.95;;;9.94;59.34
41306;BME280;27051;50.376;19.152;2024-02-23T03:03:47;96214.41;;;9.93;59.51
41306;BME280;27051;50.376;19.152;2024-02-23T03:06:35;96207.58;;;9.90;59.50
41306;BME280;27051;50.376;19.152;2024-02-23T03:09:04;96209.11;;;9.88;59.53
41306;BME280;27051;50.376;19.152;2024-02-23T03:11:31;96208.25;;;9.83;59.65
41306;BME280;27051;50.376;19.152;2024-02-23T03:14:06;96209.86;;;9.80;59.71
41306;BME280;27051;50.376;19.152;2024-02-23T03:16:41;96217.22;;;9.78;59.79
41306;BME280;27051;50.376;19.152;2024-02-23T03:19:11;96217.14;;;9.82;59.81
41306;BME280;27051;50.376;19.152;2024-02-23T03:21:43;96220.82;;;9.83;59.75
41306;BME280;27051;50.376;19.152;2024-02-23T03:24:37;96222.52;;;9.84;59.82
41306;BME280;27051;50.376;19.152;2024-02-23T03:30:22;96225.58;;;9.84;59.87
41306;BME280;27051;50.376;19.152;2024-02-23T03:32:51;96230.09;;;9.82;60.00
41306;BME280;27051;50.376;19.152;2024-02-23T03:35:38;96231.22;;;9.76;60.20
41306;BME280;27051;50.376;19.152;2024-02-23T03:38:10;96234.73;;;9.71;60.25
41306;BME280;27051;50.376;19.152;2024-02-23T03:40:40;96230.21;;;9.72;60.40
41306;BME280;27051;50.376;19.152;2024-02-23T03:43:16;96233.75;;;9.72;60.27
41306;BME280;27051;50.376;19.152;2024-02-23T03:45:43;96235.52;;;9.70;60.42
41306;BME280;27051;50.376;19.152;2024-02-23T03:48:42;96236.36;;;9.70;60.68
41306;BME280;27051;50.376;19.152;2024-02-23T03:51:09;96236.48;;;9.70;60.48
41306;BME280;27051;50.376;19.152;2024-02-23T03:53:36;96243.47;;;9.66;60.65
41306;BME280;27051;50.376;19.152;2024-02-23T03:56:15;96241.61;;;9.63;60.65
41306;BME280;27051;50.376;19.152;2024-02-23T03:59:11;96242.67;;;9.61;60.81
41306;BME280;27051;50.376;19.152;2024-02-23T04:01:55;96244.52;;;9.64;60.83
41306;BME280;27051;50.376;19.152;2024-02-23T04:06:59;96251.03;;;9.61;61.27
41306;BME280;27051;50.376;19.152;2024-02-23T04:09:48;96251.39;;;9.60;61.31
41306;BME280;27051;50.376;19.152;2024-02-23T04:12:25;96255.68;;;9.58;61.28
41306;BME280;27051;50.376;19.152;2024-02-23T04:15:04;96252.35;;;9.50;61.39
41306;BME280;27051;50.376;19.152;2024-02-23T04:17:34;96256.58;;;9.49;61.51
41306;BME280;27051;50.376;19.152;2024-02-23T04:20:11;96258.40;;;9.47;61.68
41306;BME280;27051;50.376;19.152;2024-02-23T04:25:21;96268.45;;;9.50;61.72
41306;BME280;27051;50.376;19.152;2024-02-23T04:27:51;96263.98;;;9.48;62.04
41306;BME280;27051;50.376;19.152;2024-02-23T04:30:18;96269.34;;;9.46;61.97
41306;BME280;27051;50.376;19.152;2024-02-23T04:32:56;96272.83;;;9.39;62.83
41306;BME280;27051;50.376;19.152;2024-02-23T04:35:46;96272.38;;;9.37;62.37
41306;BME280;27051;50.376;19.152;2024-02-23T04:38:21;96270.45;;;9.36;62.15
41306;BME280;27051;50.376;19.152;2024-02-23T04:40:57;96268.40;;;9.42;62.14
41306;BME280;27051;50.376;19.152;2024-02-23T04:44:05;96276.75;;;9.42;62.50
41306;BME280;27051;50.376;19.152;2024-02-23T04:46:31;96287.55;;;9.41;62.22
41306;BME280;27051;50.376;19.152;2024-02-23T04:49:21;96288.84;;;9.40;62.40
41306;BME280;27051;50.376;19.152;2024-02-23T04:54:49;96294.02;;;9.32;63.02
41306;BME280;27051;50.376;19.152;2024-02-23T04:57:40;96295.15;;;9.29;63.22
41306;BME280;27051;50.376;19.152;2024-02-23T05:00:09;96295.91;;;9.28;63.28
41306;BME280;27051;50.376;19.152;2024-02-23T05:02:38;96300.20;;;9.30;63.17
41306;BME280;27051;50.376;19.152;2024-02-23T05:05:10;96301.73;;;9.28;63.64
41306;BME280;27051;50.376;19.152;2024-02-23T05:10:32;96305.14;;;9.25;64.00
41306;BME280;27051;50.376;19.152;2024-02-23T05:12:59;96311.02;;;9.20;63.85
41306;BME280;27051;50.376;19.152;2024-02-23T05:15:42;96316.20;;;9.16;64.03
41306;BME280;27051;50.376;19.152;2024-02-23T05:18:09;96320.39;;;9.13;64.62
41306;BME280;27051;50.376;19.152;2024-02-23T05:20:44;96325.74;;;9.11;64.13
41306;BME280;27051;50.376;19.152;2024-02-23T05:23:27;96326.59;;;9.12;64.67
41306;BME280;27051;50.376;19.152;2024-02-23T05:26:08;96331.66;;;9.15;64.81
41306;BME280;27051;50.376;19.152;2024-02-23T05:29:16;96334.64;;;9.14;64.40
41306;BME280;27051;50.376;19.152;2024-02-23T05:32:27;96340.23;;;9.14;64.69
41306;BME280;27051;50.376;19.152;2024-02-23T05:35:34;96338.44;;;9.10;64.72
41306;BME280;27051;50.376;19.152;2024-02-23T05:38:41;96343.96;;;9.11;64.82
41306;BME280;27051;50.376;19.152;2024-02-23T05:41:38;96340.98;;;9.12;64.99
41306;BME280;27051;50.376;19.152;2024-02-23T05:44:29;96342.43;;;9.11;65.04
41306;BME280;27051;50.376;19.152;2024-02-23T05:49:59;96352.04;;;9.15;65.08
41306;BME280;27051;50.376;19.152;2024-02-23T05:53:07;96359.02;;;9.17;65.27
41306;BME280;27051;50.376;19.152;2024-02-23T05:55:47;96364.91;;;9.17;65.37
41306;BME280;27051;50.376;19.152;2024-02-23T05:58:30;96369.70;;;9.13;65.43
41306;BME280;27051;50.376;19.152;2024-02-23T06:01:27;96376.76;;;9.13;65.49
41306;BME280;27051;50.376;19.152;2024-02-23T06:07:25;96386.08;;;9.12;65.74
41306;BME280;27051;50.376;19.152;2024-02-23T06:10:04;96393.36;;;9.12;65.71
41306;BME280;27051;50.376;19.152;2024-02-23T06:12:54;96396.38;;;9.14;65.99
41306;BME280;27051;50.376;19.152;2024-02-23T06:18:39;96408.11;;;9.20;66.00
41306;BME280;27051;50.376;19.152;2024-02-23T06:24:43;96413.00;;;9.16;66.24
41306;BME280;27051;50.376;19.152;2024-02-23T06:30:49;96417.73;;;9.14;66.28
41306;BME280;27051;50.376;19.152;2024-02-23T06:33:21;96415.87;;;9.12;66.45
41306;BME280;27051;50.376;19.152;2024-02-23T06:36:29;96421.66;;;9.17;66.50
41306;BME280;27051;50.376;19.152;2024-02-23T06:39:37;96430.98;;;9.25;66.67
41306;BME280;27051;50.376;19.152;2024-02-23T06:42:43;96432.00;;;9.26;66.60
41306;BME280;27051;50.376;19.152;2024-02-23T06:48:36;96450.92;;;9.26;66.90
41306;BME280;27051;50.376;19.152;2024-02-23T06:51:20;96458.95;;;9.25;67.02
41306;BME280;27051;50.376;19.152;2024-02-23T06:54:19;96463.29;;;9.23;67.19
41306;BME280;27051;50.376;19.152;2024-02-23T06:56:45;96460.84;;;9.23;67.10
41306;BME280;27051;50.376;19.152;2024-02-23T06:59:17;96463.59;;;9.22;67.24
41306;BME280;27051;50.376;19.152;2024-02-23T07:02:14;96470.02;;;9.21;67.71
41306;BME280;27051;50.376;19.152;2024-02-23T07:04:43;96476.16;;;9.23;67.53
41306;BME280;27051;50.376;19.152;2024-02-23T07:09:55;96472.94;;;9.23;67.68
41306;BME280;27051;50.376;19.152;2024-02-23T07:12:52;96478.76;;;9.23;67.68
41306;BME280;27051;50.376;19.152;2024-02-23T07:18:22;96482.27;;;9.21;67.87
41306;BME280;27051;50.376;19.152;2024-02-23T07:20:51;96483.20;;;9.22;67.98
41306;BME280;27051;50.376;19.152;2024-02-23T07:23:28;96487.36;;;9.25;67.93
41306;BME280;27051;50.376;19.152;2024-02-23T07:26:22;96488.89;;;9.33;68.03
41306;BME280;27051;50.376;19.152;2024-02-23T07:28:52;96494.34;;;9.44;68.00
41306;BME280;27051;50.376;19.152;2024-02-23T07:31:48;96500.48;;;9.54;68.02
41306;BME280;27051;50.376;19.152;2024-02-23T07:34:55;96500.55;;;9.62;67.98
41306;BME280;27051;50.376;19.152;2024-02-23T07:40:52;96501.42;;;9.56;68.10
41306;BME280;27051;50.376;19.152;2024-02-23T07:58:35;96506.22;;;9.52;68.48
41306;BME280;27051;50.376;19.152;2024-02-23T08:01:42;96504.95;;;9.57;68.60
41306;BME280;27051;50.376;19.152;2024-02-23T08:04:19;96511.31;;;9.66;68.58
41306;BME280;27051;50.376;19.152;2024-02-23T08:07:16;96513.12;;;9.72;68.73
41306;BME280;27051;50.376;19.152;2024-02-23T08:10:20;96510.61;;;9.74;68.46
41306;BME280;27051;50.376;19.152;2024-02-23T08:12:46;96512.28;;;9.72;68.91
41306;BME280;27051;50.376;19.152;2024-02-23T08:15:33;96515.10;;;9.71;68.92
41306;BME280;27051;50.376;19.152;2024-02-23T08:18:09;96518.94;;;9.71;68.69
41306;BME280;27051;50.376;19.152;2024-02-23T08:20:55;96520.48;;;9.71;68.80
41306;BME280;27051;50.376;19.152;2024-02-23T08:23:43;96522.34;;;9.74;68.86
41306;BME280;27051;50.376;19.152;2024-02-23T08:26:19;96523.67;;;9.78;68.94
41306;BME280;27051;50.376;19.152;2024-02-23T08:28:46;96515.96;;;9.82;68.88
41306;BME280;27051;50.376;19.152;2024-02-23T08:31:13;96522.81;;;9.87;68.96
41306;BME280;27051;50.376;19.152;2024-02-23T08:33:39;96526.61;;;9.91;68.89
41306;BME280;27051;50.376;19.152;2024-02-23T08:36:18;96526.93;;;9.94;69.01
41306;BME280;27051;50.376;19.152;2024-02-23T08:39:02;96530.20;;;9.99;68.99
41306;BME280;27051;50.376;19.152;2024-02-23T08:41:29;96530.10;;;9.98;69.14
41306;BME280;27051;50.376;19.152;2024-02-23T08:46:58;96521.21;;;9.97;69.13
41306;BME280;27051;50.376;19.152;2024-02-23T08:49:26;96524.27;;;9.97;69.16
41306;BME280;27051;50.376;19.152;2024-02-23T08:51:58;96528.39;;;9.94;69.45
41306;BME280;27051;50.376;19.152;2024-02-23T08:54:45;96530.46;;;9.94;69.35
41306;BME280;27051;50.376;19.152;2024-02-23T08:57:23;96530.60;;;9.93;69.38
41306;BME280;27051;50.376;19.152;2024-02-23T08:59:50;96530.15;;;9.92;69.49
41306;BME280;27051;50.376;19.152;2024-02-23T09:02:20;96528.70;;;9.95;69.51
41306;BME280;27051;50.376;19.152;2024-02-23T09:04:52;96537.11;;;10.00;69.73
41306;BME280;27051;50.376;19.152;2024-02-23T09:07:49;96532.02;;;9.98;69.65
41306;BME280;27051;50.376;19.152;2024-02-23T09:10:25;96533.09;;;9.98;69.61
41306;BME280;27051;50.376;19.152;2024-02-23T09:13:30;96533.60;;;9.94;69.55
41306;BME280;27051;50.376;19.152;2024-02-23T09:16:10;96539.96;;;9.94;69.62
41306;BME280;27051;50.376;19.152;2024-02-23T09:24:49;96544.78;;;10.13;69.61
41306;BME280;27051;50.376;19.152;2024-02-23T09:27:32;96547.91;;;10.23;69.66
41306;BME280;27051;50.376;19.152;2024-02-23T09:30:23;96558.45;;;10.34;69.43
41306;BME280;27051;50.376;19.152;2024-02-23T09:32:59;96573.60;;;10.40;69.50
41306;BME280;27051;50.376;19.152;2024-02-23T09:35:40;96585.11;;;10.42;69.64
41306;BME280;27051;50.376;19.152;2024-02-23T09:38:12;96588.55;;;10.41;69.38
41306;BME280;27051;50.376;19.152;2024-02-23T09:41:07;96587.52;;;10.46;69.46
41306;BME280;27051;50.376;19.152;2024-02-23T09:43:54;96590.46;;;10.49;69.50
41306;BME280;27051;50.376;19.152;2024-02-23T09:46:37;96591.41;;;10.53;69.57
41306;BME280;27051;50.376;19.152;2024-02-23T09:49:17;96592.73;;;10.58;69.49
41306;BME280;27051;50.376;19.152;2024-02-23T09:52:10;96602.71;;;10.56;69.92
41306;BME280;27051;50.376;19.152;2024-02-23T09:54:54;96605.42;;;10.50;70.17
41306;BME280;27051;50.376;19.152;2024-02-23T10:00:38;96609.79;;;10.58;70.15
41306;BME280;27051;50.376;19.152;2024-02-23T10:03:29;96617.27;;;10.67;70.23
41306;BME280;27051;50.376;19.152;2024-02-23T10:05:59;96624.84;;;10.73;70.22
41306;BME280;27051;50.376;19.152;2024-02-23T10:11:53;96613.59;;;10.81;70.09
41306;BME280;27051;50.376;19.152;2024-02-23T10:14:43;96614.03;;;10.91;70.00
41306;BME280;27051;50.376;19.152;2024-02-23T10:17:22;96621.67;;;11.01;69.94
41306;BME280;27051;50.376;19.152;2024-02-23T10:20:00;96620.58;;;10.94;69.71
41306;BME280;27051;50.376;19.152;2024-02-23T10:22:56;96620.33;;;10.94;69.90
41306;BME280;27051;50.376;19.152;2024-02-23T10:25:32;96621.98;;;10.99;69.98
41306;BME280;27051;50.376;19.152;2024-02-23T10:28:10;96616.78;;;11.03;70.03
41306;BME280;27051;50.376;19.152;2024-02-23T10:31:04;96611.48;;;11.06;69.68
41306;BME280;27051;50.376;19.152;2024-02-23T10:33:49;96612.57;;;11.10;69.59
41306;BME280;27051;50.376;19.152;2024-02-23T10:36:45;96613.60;;;11.17;69.65
41306;BME280;27051;50.376;19.152;2024-02-23T10:39:39;96613.92;;;11.22;69.37
41306;BME280;27051;50.376;19.152;2024-02-23T10:45:11;96614.52;;;11.35;69.35
41306;BME280;27051;50.376;19.152;2024-02-23T10:50:29;96609.47;;;11.46;69.12
41306;BME280;27051;50.376;19.152;2024-02-23T10:53:10;96611.41;;;11.50;68.94
41306;BME280;27051;50.376;19.152;2024-02-23T10:55:37;96612.19;;;11.56;68.86
41306;BME280;27051;50.376;19.152;2024-02-23T10:58:24;96618.33;;;11.56;68.56
41306;BME280;27051;50.376;19.152;2024-02-23T11:06:38;96638.90;;;11.25;68.35
41306;BME280;27051;50.376;19.152;2024-02-23T11:09:11;96643.18;;;11.16;68.21
41306;BME280;27051;50.376;19.152;2024-02-23T11:12:12;96653.12;;;11.07;67.96
41306;BME280;27051;50.376;19.152;2024-02-23T11:14:42;96664.65;;;10.95;68.09
41306;BME280;27051;50.376;19.152;2024-02-23T11:17:31;96666.67;;;10.85;68.17
41306;BME280;27051;50.376;19.152;2024-02-23T11:26:28;96664.77;;;10.62;68.66
41306;BME280;27051;50.376;19.152;2024-02-23T11:32:00;96666.95;;;10.54;69.14
41306;BME280;27051;50.376;19.152;2024-02-23T11:38:06;96688.76;;;10.57;69.41
41306;BME280;27051;50.376;19.152;2024-02-23T11:40:53;96691.45;;;10.59;69.47
41306;BME280;27051;50.376;19.152;2024-02-23T11:43:55;96690.23;;;10.68;69.53
41306;BME280;27051;50.376;19.152;2024-02-23T11:46:50;96688.31;;;10.71;69.39
41306;BME280;27051;50.376;19.152;2024-02-23T11:49:58;96680.64;;;10.71;69.36
41306;BME280;27051;50.376;19.152;2024-02-23T11:55:51;96679.98;;;10.76;69.67
41306;BME280;27051;50.376;19.152;2024-02-23T11:59:21;96692.29;;;10.80;69.60
41306;BME280;27051;50.376;19.152;2024-02-23T12:02:09;96700.20;;;10.80;69.67
41306;BME280;27051;50.376;19.152;2024-02-23T12:07:52;96705.23;;;10.87;69.76
41306;BME280;27051;50.376;19.152;2024-02-23T12:10:19;96714.27;;;10.94;69.71
41306;BME280;27051;50.376;19.152;2024-02-23T12:16:21;96722.91;;;11.00;69.61
41306;BME280;27051;50.376;19.152;2024-02-23T12:21:45;96729.31;;;10.94;69.52
41306;BME280;27051;50.376;19.152;2024-02-23T12:24:46;96717.63;;;10.91;69.42
41306;BME280;27051;50.376;19.152;2024-02-23T12:27:25;96712.00;;;10.89;69.75
41306;BME280;27051;50.376;19.152;2024-02-23T12:30:04;96701.90;;;10.95;69.69
41306;BME280;27051;50.376;19.152;2024-02-23T12:32:54;96688.96;;;11.01;69.64
41306;BME280;27051;50.376;19.152;2024-02-23T12:35:33;96688.92;;;11.09;69.66
41306;BME280;27051;50.376;19.152;2024-02-23T12:38:04;96701.00;;;11.11;69.67
41306;BME280;27051;50.376;19.152;2024-02-23T12:40:40;96703.29;;;11.10;69.78
41306;BME280;27051;50.376;19.152;2024-02-23T12:43:23;96707.45;;;11.13;69.73
41306;BME280;27051;50.376;19.152;2024-02-23T12:45:53;96709.98;;;11.12;69.54
41306;BME280;27051;50.376;19.152;2024-02-23T12:48:32;96704.98;;;11.10;69.47
41306;BME280;27051;50.376;19.152;2024-02-23T12:51:18;96702.16;;;11.13;69.44
41306;BME280;27051;50.376;19.152;2024-02-23T12:53:45;96703.05;;;11.21;69.43
41306;BME280;27051;50.376;19.152;2024-02-23T12:56:23;96713.42;;;11.22;69.46
41306;BME280;27051;50.376;19.152;2024-02-23T12:58:50;96714.67;;;11.27;69.43
41306;BME280;27051;50.376;19.152;2024-02-23T13:01:20;96710.23;;;11.27;69.17
41306;BME280;27051;50.376;19.152;2024-02-23T13:04:00;96710.36;;;11.24;69.45
41306;BME280;27051;50.376;19.152;2024-02-23T13:09:55;96724.77;;;11.16;69.17
41306;BME280;27051;50.376;19.152;2024-02-23T13:12:27;96724.84;;;11.15;69.37
41306;BME280;27051;50.376;19.152;2024-02-23T13:15:28;96725.83;;;11.16;69.33
41306;BME280;27051;50.376;19.152;2024-02-23T13:17:57;96729.31;;;11.19;69.22
41306;BME280;27051;50.376;19.152;2024-02-23T13:20:36;96734.31;;;11.20;69.34
41306;BME280;27051;50.376;19.152;2024-02-23T13:23:04;96728.02;;;11.21;69.31
41306;BME280;27051;50.376;19.152;2024-02-23T13:25:53;96728.41;;;11.22;69.50
41306;BME280;27051;50.376;19.152;2024-02-23T13:28:22;96726.42;;;11.25;69.57
41306;BME280;27051;50.376;19.152;2024-02-23T13:31:10;96724.46;;;11.32;69.48
41306;BME280;27051;50.376;19.152;2024-02-23T13:33:47;96723.16;;;11.33;69.11
41306;BME280;27051;50.376;19.152;2024-02-23T13:36:34;96727.85;;;11.33;69.29
41306;BME280;27051;50.376;19.152;2024-02-23T13:39:09;96730.48;;;11.37;69.04
41306;BME280;27051;50.376;19.152;2024-02-23T13:41:38;96733.35;;;11.39;69.04
41306;BME280;27051;50.376;19.152;2024-02-23T13:44:05;96734.58;;;11.40;69.19
41306;BME280;27051;50.376;19.152;2024-02-23T13:46:51;96739.27;;;11.40;69.06
41306;BME280;27051;50.376;19.152;2024-02-23T13:49:27;96742.60;;;11.34;68.94
41306;BME280;27051;50.376;19.152;2024-02-23T13:51:57;96743.23;;;11.21;69.15
41306;BME280;27051;50.376;19.152;2024-02-23T13:54:24;96746.37;;;11.19;69.35
41306;BME280;27051;50.376;19.152;2024-02-23T14:02:53;96750.47;;;11.11;69.25
41306;BME280;27051;50.376;19.152;2024-02-23T14:05:26;96759.48;;;11.12;69.22
41306;BME280;27051;50.376;19.152;2024-02-23T14:10:45;96759.80;;;11.04;69.28
41306;BME280;27051;50.376;19.152;2024-02-23T14:13:31;96757.93;;;10.98;69.34
41306;BME280;27051;50.376;19.152;2024-02-23T14:16:10;96759.57;;;10.91;69.43
41306;BME280;27051;50.376;19.152;2024-02-23T14:18:47;96762.52;;;10.85;69.39
41306;BME280;27051;50.376;19.152;2024-02-23T14:21:53;96761.56;;;10.81;69.55
41306;BME280;27051;50.376;19.152;2024-02-23T14:24:31;96768.94;;;10.81;69.84
41306;BME280;27051;50.376;19.152;2024-02-23T14:27:27;96773.45;;;10.80;69.80
41306;BME280;27051;50.376;19.152;2024-02-23T14:30:08;96775.21;;;10.79;69.96
41306;BME280;27051;50.376;19.152;2024-02-23T14:32:47;96777.13;;;10.77;70.00
41306;BME280;27051;50.376;19.152;2024-02-23T14:35:25;96782.77;;;10.73;70.18
41306;BME280;27051;50.376;19.152;2024-02-23T14:38:33;96781.58;;;10.68;70.09
41306;BME280;27051;50.376;19.152;2024-02-23T14:41:39;96769.31;;;10.61;70.12
41306;BME280;27051;50.376;19.152;2024-02-23T14:44:28;96767.96;;;10.48;70.17
41306;BME280;27051;50.376;19.152;2024-02-23T14:50:20;96772.40;;;10.38;70.39
41306;BME280;27051;50.376;19.152;2024-02-23T14:52:50;96770.38;;;10.35;70.55
41306;BME280;27051;50.376;19.152;2024-02-23T14:55:58;96774.33;;;10.39;70.70
41306;BME280;27051;50.376;19.152;2024-02-23T14:58:29;96769.64;;;10.47;70.90
41306;BME280;27051;50.376;19.152;2024-02-23T15:01:17;96771.46;;;10.44;70.75
41306;BME280;27051;50.376;19.152;2024-02-23T15:06:47;96768.24;;;10.29;70.82
41306;BME280;27051;50.376;19.152;2024-02-23T15:09:43;96771.17;;;10.31;71.15
41306;BME280;27051;50.376;19.152;2024-02-23T15:12:34;96769.61;;;10.35;71.17
41306;BME280;27051;50.376;19.152;2024-02-23T15:15:39;96769.73;;;10.40;71.14
41306;BME280;27051;50.376;19.152;2024-02-23T15:18:09;96774.67;;;10.43;70.81
41306;BME280;27051;50.376;19.152;2024-02-23T15:20:38;96776.80;;;10.40;70.82
41306;BME280;27051;50.376;19.152;2024-02-23T15:23:10;96778.33;;;10.39;70.90
41306;BME280;27051;50.376;19.152;2024-02-23T15:28:23;96778.27;;;10.41;71.07
41306;BME280;27051;50.376;19.152;2024-02-23T15:30:58;96776.09;;;10.38;70.92
41306;BME280;27051;50.376;19.152;2024-02-23T15:33:25;96774.90;;;10.34;70.96
41306;BME280;27051;50.376;19.152;2024-02-23T15:36:23;96767.98;;;10.33;71.01
41306;BME280;27051;50.376;19.152;2024-02-23T15:39:04;96769.58;;;10.32;70.89
41306;BME280;27051;50.376;19.152;2024-02-23T15:41:51;96769.04;;;10.31;70.83
41306;BME280;27051;50.376;19.152;2024-02-23T15:44:48;96767.93;;;10.29;70.83
41306;BME280;27051;50.376;19.152;2024-02-23T15:47:38;96772.45;;;10.28;70.82
41306;BME280;27051;50.376;19.152;2024-02-23T15:50:36;96770.70;;;10.30;70.69
41306;BME280;27051;50.376;19.152;2024-02-23T15:53:44;96769.77;;;10.30;70.68
41306;BME280;27051;50.376;19.152;2024-02-23T15:56:30;96772.02;;;10.25;70.62
41306;BME280;27051;50.376;19.152;2024-02-23T15:59:13;96762.84;;;10.19;70.76
41306;BME280;27051;50.376;19.152;2024-02-23T16:04:30;96768.53;;;10.14;70.86
41306;BME280;27051;50.376;19.152;2024-02-23T16:07:03;96772.34;;;10.10;70.90
41306;BME280;27051;50.376;19.152;2024-02-23T16:09:43;96778.88;;;10.06;70.89
41306;BME280;27051;50.376;19.152;2024-02-23T16:12:19;96784.60;;;10.04;71.05
41306;BME280;27051;50.376;19.152;2024-02-23T16:14:51;96792.84;;;10.06;71.09
41306;BME280;27051;50.376;19.152;2024-02-23T16:17:18;96792.42;;;10.04;71.04
41306;BME280;27051;50.376;19.152;2024-02-23T16:20:14;96795.90;;;10.05;71.09
41306;BME280;27051;50.376;19.152;2024-02-23T16:22:44;96790.52;;;10.03;71.08
41306;BME280;27051;50.376;19.152;2024-02-23T16:25:35;96792.33;;;10.02;70.91
41306;BME280;27051;50.376;19.152;2024-02-23T16:28:04;96793.48;;;9.95;71.09
41306;BME280;27051;50.376;19.152;2024-02-23T16:30:59;96798.66;;;9.93;71.14
41306;BME280;27051;50.376;19.152;2024-02-23T16:33:25;96802.02;;;9.90;70.97
41306;BME280;27051;50.376;19.152;2024-02-23T16:36:13;96805.61;;;9.90;71.09
41306;BME280;27051;50.376;19.152;2024-02-23T16:38:42;96803.94;;;9.91;71.15
41306;BME280;27051;50.376;19.152;2024-02-23T16:41:22;96806.13;;;9.88;71.10
41306;BME280;27051;50.376;19.152;2024-02-23T16:44:11;96806.87;;;9.85;71.11
41306;BME280;27051;50.376;19.152;2024-02-23T16:46:38;96805.27;;;9.85;71.32